Glendale, Mississippi
Current Conditions -  °F | °C
As of 6:53 AM on Monday 22 Dec 2014 (Local Time) from KHBG Reporting Station
Moderate Fog Moderate Fog  
Wind Chill: 55°   Ceiling: 200
Heat Index: 55°   Visibility: 0.25mi
Dew Point: 54°   Wind: 5mph
Humidity: 96%   Direction: 110°ESE
Pressure: 29.88"   Gusts: NA
Location:  31.1996°N, 89.2694°W
Report Text: KHBG 221253Z AUTO 11004KT 1/4SM FG VV002 13/12 A2988 RMK AO2 SLP118 T01280122
Loading
Personal Weather Stations






























Interactive Weather Map New forecast layout! Learn more

10-Day Weather Forecast

Advertisements
Track Severe Weather on mobile